createdAt,value
2022-10-23T00:02:24.748Z,15.14
2022-10-23T00:05:30.585Z,14.89
2022-10-23T00:08:37.906Z,15.10
2022-10-23T00:11:45.376Z,15.17
2022-10-23T00:14:49.161Z,15.11
2022-10-23T00:18:00.922Z,15.16
2022-10-23T00:21:07.103Z,15.06
2022-10-23T00:24:11.095Z,15.18
2022-10-23T00:27:17.706Z,15.08
2022-10-23T00:30:21.567Z,15.21
2022-10-23T00:33:28.997Z,15.02
2022-10-23T00:36:32.815Z,14.98
2022-10-23T00:39:36.572Z,15.04
2022-10-23T00:42:41.588Z,14.97
2022-10-23T00:45:45.623Z,15.03
2022-10-23T00:49:00.951Z,14.91
2022-10-23T00:52:08.363Z,15.04
2022-10-23T00:55:16.113Z,14.83
2022-10-23T00:58:21.617Z,14.92
2022-10-23T01:01:31.634Z,14.97
2022-10-23T01:04:40.585Z,15.04
2022-10-23T01:07:51.795Z,14.87
2022-10-23T01:11:05.017Z,14.82
2022-10-23T01:14:21.841Z,14.97
2022-10-23T01:17:30.313Z,14.83
2022-10-23T01:20:43.873Z,15.04
2022-10-23T01:24:11.092Z,14.95
2022-10-23T01:27:28.651Z,15.13
2022-10-23T01:30:34.081Z,15.02
2022-10-23T01:33:42.316Z,14.72
2022-10-23T01:36:52.222Z,14.85
2022-10-23T01:40:02.477Z,14.91
2022-10-23T01:43:14.541Z,14.86
2022-10-23T01:46:19.223Z,14.86
2022-10-23T01:49:25.473Z,13.91
2022-10-23T01:52:32.986Z,14.28
2022-10-23T01:58:59.421Z,14.12
2022-10-23T02:02:08.300Z,14.53
2022-10-23T02:05:16.325Z,14.51
2022-10-23T02:08:20.003Z,14.63
2022-10-23T02:11:23.989Z,14.66
2022-10-23T02:14:40.202Z,14.31
2022-10-23T02:17:51.149Z,14.36
2022-10-23T02:20:57.716Z,14.52
2022-10-23T02:24:06.883Z,14.44
2022-10-23T02:27:18.732Z,14.74
2022-10-23T02:30:31.437Z,14.77
2022-10-23T02:33:46.161Z,14.52
2022-10-23T02:36:50.635Z,14.02
2022-10-23T02:39:56.765Z,14.51
2022-10-23T02:43:03.690Z,14.31
2022-10-23T02:46:19.157Z,14.47
2022-10-23T02:49:30.795Z,14.30
2022-10-23T02:52:42.811Z,14.57
2022-10-23T02:56:01.344Z,14.61
2022-10-23T02:59:12.373Z,14.70
2022-10-23T03:02:25.547Z,14.75
2022-10-23T03:05:33.910Z,14.53
2022-10-23T03:08:45.652Z,14.69
2022-10-23T03:11:49.257Z,14.22
2022-10-23T03:14:52.997Z,14.14
2022-10-23T03:18:00.386Z,14.04
2022-10-23T03:21:03.970Z,13.83
2022-10-23T03:24:10.706Z,13.69
2022-10-23T03:27:19.035Z,13.80
2022-10-23T03:30:22.645Z,14.01
2022-10-23T03:33:35.946Z,14.39
2022-10-23T03:36:48.291Z,14.64
2022-10-23T03:39:52.342Z,14.46
2022-10-23T03:42:55.981Z,14.33
2022-10-23T03:46:01.034Z,14.26
2022-10-23T03:49:06.384Z,14.27
2022-10-23T03:52:10.227Z,14.66
2022-10-23T03:55:14.304Z,14.92
2022-10-23T03:58:17.952Z,14.87
2022-10-23T04:01:22.419Z,14.68
2022-10-23T04:04:27.936Z,15.12
2022-10-23T04:07:31.519Z,14.99
2022-10-23T04:10:38.680Z,15.04
2022-10-23T04:13:42.117Z,15.14
2022-10-23T04:16:45.812Z,15.17
2022-10-23T04:19:50.952Z,15.22
2022-10-23T04:22:54.513Z,15.29
2022-10-23T04:25:58.883Z,15.34
2022-10-23T04:29:03.343Z,15.34
2022-10-23T04:32:08.716Z,15.38
2022-10-23T04:35:13.994Z,15.36
2022-10-23T04:38:17.805Z,15.22
2022-10-23T04:41:21.585Z,15.14
2022-10-23T04:44:25.297Z,15.29
2022-10-23T04:47:29.092Z,15.42
2022-10-23T04:50:36.685Z,15.48
2022-10-23T04:54:03.186Z,15.56
2022-10-23T04:57:33.213Z,15.74
2022-10-23T05:00:40.231Z,16.00
2022-10-23T05:03:45.502Z,16.06
2022-10-23T05:06:51.666Z,16.04
2022-10-23T05:10:09.099Z,16.14
2022-10-23T05:13:31.676Z,16.04
2022-10-23T05:16:39.385Z,16.16
2022-10-23T05:19:45.873Z,16.42
2022-10-23T05:22:53.362Z,16.53
2022-10-23T05:26:03.451Z,16.67
2022-10-23T05:29:08.741Z,16.77
2022-10-23T05:32:15.975Z,16.83
2022-10-23T05:35:23.882Z,17.01
2022-10-23T05:38:34.256Z,17.36
2022-10-23T05:41:42.566Z,17.70
2022-10-23T05:44:46.242Z,17.97
2022-10-23T05:48:29.972Z,18.36
2022-10-23T05:51:49.824Z,18.60
2022-10-23T05:54:57.676Z,18.95
2022-10-23T05:58:40.346Z,19.09
2022-10-23T06:01:54.319Z,19.53
2022-10-23T06:05:18.566Z,20.00
2022-10-23T06:08:48.512Z,20.12
2022-10-23T06:11:54.584Z,20.52
2022-10-23T06:14:59.582Z,20.54
2022-10-23T06:18:23.465Z,20.88
2022-10-23T06:21:39.515Z,21.13
2022-10-23T06:24:43.894Z,21.27
2022-10-23T06:27:52.925Z,21.57
2022-10-23T06:30:56.783Z,21.53
2022-10-23T06:34:01.535Z,21.70
2022-10-23T06:37:07.716Z,22.00
2022-10-23T06:40:31.757Z,22.22
2022-10-23T06:43:40.286Z,22.44
2022-10-23T06:47:02.135Z,22.61
2022-10-23T06:50:25.372Z,22.82
2022-10-23T06:53:29.836Z,22.82
2022-10-23T06:56:42.637Z,22.96
2022-10-23T06:59:48.902Z,23.12
2022-10-23T07:02:54.336Z,23.32
2022-10-23T07:06:02.383Z,23.22
2022-10-23T07:09:06.536Z,23.15
2022-10-23T07:12:29.906Z,23.34
2022-10-23T07:15:53.725Z,23.17
2022-10-23T07:19:02.133Z,23.32
2022-10-23T07:22:05.906Z,23.49
2022-10-23T07:25:27.703Z,23.88
2022-10-23T07:28:31.567Z,24.22
2022-10-23T07:31:36.794Z,24.36
2022-10-23T07:38:33.794Z,24.34
2022-10-23T07:41:38.823Z,24.76
2022-10-23T07:44:42.546Z,24.77
2022-10-23T07:47:52.197Z,24.52
2022-10-23T07:51:01.078Z,24.87
2022-10-23T07:54:05.230Z,25.12
2022-10-23T07:57:28.863Z,25.26
2022-10-23T08:00:43.324Z,25.39
2022-10-23T08:04:03.182Z,25.57
2022-10-23T08:07:07.718Z,25.49
2022-10-23T08:10:16.936Z,25.84
2022-10-23T08:13:22.533Z,25.76
2022-10-23T08:16:35.897Z,25.69
2022-10-23T08:19:41.167Z,25.49
2022-10-23T08:22:44.918Z,25.42
2022-10-23T08:25:58.790Z,25.38
2022-10-23T08:29:03.224Z,25.47
2022-10-23T08:32:07.454Z,25.57
2022-10-23T08:35:29.445Z,25.75
2022-10-23T08:38:35.836Z,25.71
2022-10-23T08:41:44.144Z,25.75
2022-10-23T08:45:00.525Z,25.91
2022-10-23T08:48:14.962Z,25.87
2022-10-23T08:51:44.026Z,26.17
2022-10-23T08:54:58.915Z,26.17
2022-10-23T08:58:06.916Z,26.59
2022-10-23T09:01:28.712Z,26.78
2022-10-23T09:04:33.385Z,26.79
2022-10-23T09:07:44.716Z,26.87
2022-10-23T09:11:02.751Z,26.85
2022-10-23T09:14:30.485Z,27.15
2022-10-23T09:17:38.158Z,26.98
2022-10-23T09:20:45.583Z,27.11
2022-10-23T09:23:50.676Z,26.90
2022-10-23T09:26:55.749Z,26.98
2022-10-23T09:29:59.582Z,27.13
2022-10-23T09:33:15.442Z,27.20
2022-10-23T09:36:23.732Z,27.50
2022-10-23T09:39:32.341Z,27.42
2022-10-23T09:42:36.068Z,27.58
2022-10-23T09:45:42.672Z,27.94
2022-10-23T09:49:00.943Z,27.84
2022-10-23T09:52:24.563Z,27.82
2022-10-23T09:55:30.687Z,27.97
2022-10-23T09:58:37.787Z,28.25
2022-10-23T10:01:49.194Z,28.17
2022-10-23T10:05:25.685Z,28.32
2022-10-23T10:08:41.235Z,28.31
2022-10-23T10:11:51.563Z,28.10
2022-10-23T10:15:09.804Z,28.69
2022-10-23T10:18:20.046Z,28.68
2022-10-23T10:21:29.695Z,28.54
2022-10-23T10:24:40.544Z,28.60
2022-10-23T10:27:58.518Z,28.60
2022-10-23T10:31:12.416Z,28.87
2022-10-23T10:34:22.652Z,29.04
2022-10-23T10:37:35.055Z,28.97
2022-10-23T10:40:44.666Z,29.11
2022-10-23T10:44:02.725Z,28.99
2022-10-23T10:47:18.609Z,29.01
2022-10-23T10:50:32.982Z,29.20
2022-10-23T10:54:17.562Z,29.04
2022-10-23T10:57:31.375Z,29.19
2022-10-23T11:00:36.865Z,29.33
2022-10-23T11:03:45.942Z,29.45
2022-10-23T11:06:54.105Z,29.03
2022-10-23T11:10:01.105Z,29.06
2022-10-23T11:13:05.935Z,29.09
2022-10-23T11:16:15.215Z,28.93
2022-10-23T11:19:24.196Z,28.98
2022-10-23T11:22:33.758Z,29.12
2022-10-23T11:26:03.382Z,29.06
2022-10-23T11:29:30.746Z,29.01
2022-10-23T11:32:51.922Z,28.88
2022-10-23T11:36:15.766Z,28.74
2022-10-23T11:39:23.285Z,29.13
2022-10-23T11:42:34.141Z,28.84
2022-10-23T11:45:39.694Z,28.97
2022-10-23T11:48:47.745Z,28.83
2022-10-23T11:52:02.276Z,28.87
2022-10-23T11:55:18.442Z,28.87
2022-10-23T11:58:32.361Z,28.87
2022-10-23T12:01:42.981Z,28.77
2022-10-23T12:04:52.258Z,28.92
2022-10-23T12:07:58.013Z,28.77
2022-10-23T12:11:02.226Z,28.79
2022-10-23T12:14:06.000Z,28.83
2022-10-23T12:17:31.681Z,28.51
2022-10-23T12:20:46.778Z,28.81
2022-10-23T12:24:24.045Z,28.78
2022-10-23T12:27:35.636Z,29.04
2022-10-23T12:30:47.355Z,29.07
2022-10-23T12:34:01.856Z,28.92
2022-10-23T12:37:28.376Z,28.66
2022-10-23T12:40:32.346Z,28.44
2022-10-23T12:43:39.227Z,28.41
2022-10-23T12:46:47.765Z,28.51
2022-10-23T12:49:52.664Z,28.32
2022-10-23T12:52:59.402Z,28.36
2022-10-23T12:56:06.392Z,28.22
2022-10-23T12:59:17.403Z,28.24
2022-10-23T13:02:26.755Z,28.14
2022-10-23T13:05:31.815Z,28.28
2022-10-23T13:08:43.202Z,28.22
2022-10-23T13:12:09.535Z,28.13
2022-10-23T13:15:18.562Z,28.19
2022-10-23T13:18:22.247Z,28.14
2022-10-23T13:21:28.777Z,28.17
2022-10-23T13:24:34.082Z,28.13
2022-10-23T13:27:39.373Z,28.09
2022-10-23T13:30:46.418Z,28.22
2022-10-23T13:33:52.846Z,28.13
2022-10-23T13:37:05.695Z,28.07
2022-10-23T13:40:25.083Z,28.03
2022-10-23T13:43:30.977Z,28.01
2022-10-23T13:46:34.797Z,27.95
2022-10-23T13:49:41.206Z,27.83
2022-10-23T13:52:45.195Z,27.74
2022-10-23T13:55:56.370Z,27.54
2022-10-23T13:59:02.475Z,27.59
2022-10-23T14:02:19.642Z,27.35
2022-10-23T14:05:23.472Z,27.33
2022-10-23T14:08:27.246Z,27.34
2022-10-23T14:11:32.772Z,27.18
2022-10-23T14:14:36.566Z,27.01
2022-10-23T14:17:40.446Z,26.83
2022-10-23T14:20:44.142Z,26.71
2022-10-23T14:23:48.436Z,26.73
2022-10-23T14:26:53.675Z,26.65
2022-10-23T14:29:57.503Z,26.61
2022-10-23T14:33:01.215Z,26.49
2022-10-23T14:36:06.138Z,26.53
2022-10-23T14:39:09.896Z,26.50
2022-10-23T14:42:15.616Z,26.30
2022-10-23T14:45:19.352Z,26.31
2022-10-23T14:48:23.168Z,26.13
2022-10-23T14:51:28.923Z,25.96
2022-10-23T14:54:34.669Z,25.94
2022-10-23T14:57:39.897Z,25.75
2022-10-23T15:00:43.615Z,25.58
2022-10-23T15:03:47.422Z,25.44
2022-10-23T15:06:51.166Z,25.30
2022-10-23T15:09:55.722Z,25.17
2022-10-23T15:13:00.786Z,24.99
2022-10-23T15:16:06.385Z,24.88
2022-10-23T15:19:13.684Z,24.87
2022-10-23T15:22:21.169Z,24.76
2022-10-23T15:25:24.987Z,24.68
2022-10-23T15:28:31.172Z,24.67
2022-10-23T15:31:54.913Z,24.62
2022-10-23T15:35:00.320Z,24.52
2022-10-23T15:38:04.034Z,24.24
2022-10-23T15:41:16.755Z,24.19
2022-10-23T15:44:24.413Z,24.18
2022-10-23T15:47:28.063Z,24.00
2022-10-23T15:50:31.784Z,24.05
2022-10-23T15:53:35.467Z,23.98
2022-10-23T15:56:39.123Z,23.81
2022-10-23T15:59:44.356Z,23.85
2022-10-23T16:02:48.178Z,23.58
2022-10-23T16:05:52.206Z,23.70
2022-10-23T16:08:55.846Z,23.44
2022-10-23T16:11:59.522Z,23.36
2022-10-23T16:15:05.027Z,23.52
2022-10-23T16:18:09.126Z,23.45
2022-10-23T16:21:19.382Z,23.24
2022-10-23T16:27:26.562Z,23.01
2022-10-23T16:30:31.902Z,23.10
2022-10-23T16:33:38.755Z,23.08
2022-10-23T16:36:42.577Z,23.09
2022-10-23T16:39:46.792Z,23.20
2022-10-23T16:43:09.006Z,23.08
2022-10-23T16:46:19.703Z,23.00
2022-10-23T16:49:23.422Z,23.05
2022-10-23T16:52:27.902Z,22.88
2022-10-23T16:55:31.637Z,22.96
2022-10-23T16:58:36.266Z,22.88
2022-10-23T17:01:41.881Z,22.84
2022-10-23T17:04:48.265Z,22.88
2022-10-23T17:07:51.956Z,22.89
2022-10-23T17:11:06.042Z,22.69
2022-10-23T17:14:13.685Z,22.63
2022-10-23T17:17:18.846Z,22.44
2022-10-23T17:20:22.795Z,22.61
2022-10-23T17:23:26.543Z,22.55
2022-10-23T17:26:31.026Z,22.47
2022-10-23T17:29:34.748Z,22.55
2022-10-23T17:32:39.883Z,22.45
2022-10-23T17:35:45.447Z,22.59
2022-10-23T17:38:49.728Z,22.59
2022-10-23T17:41:53.597Z,22.60
2022-10-23T17:44:57.410Z,22.61
2022-10-23T17:48:02.402Z,22.43
2022-10-23T17:51:08.563Z,22.54
2022-10-23T17:54:13.252Z,22.42
2022-10-23T17:57:16.917Z,22.48
2022-10-23T18:00:20.702Z,22.49
2022-10-23T18:03:25.776Z,22.43
2022-10-23T18:06:32.396Z,22.35
2022-10-23T18:09:36.057Z,22.32
2022-10-23T18:12:39.702Z,22.31
2022-10-23T18:15:43.407Z,22.36
2022-10-23T18:18:49.555Z,22.10
2022-10-23T18:21:53.303Z,22.03
2022-10-23T18:24:57.135Z,22.02
2022-10-23T18:28:02.478Z,22.13
2022-10-23T18:31:09.686Z,22.11
2022-10-23T18:34:20.772Z,22.12
2022-10-23T18:37:26.791Z,22.17
2022-10-23T18:40:32.976Z,22.05
2022-10-23T18:43:43.829Z,21.95
2022-10-23T18:46:49.256Z,21.89
2022-10-23T18:49:54.482Z,21.80
2022-10-23T18:52:58.242Z,21.77
2022-10-23T18:56:02.115Z,21.81
2022-10-23T18:59:07.403Z,21.79
2022-10-23T19:02:12.301Z,21.73
2022-10-23T19:05:17.603Z,21.71
2022-10-23T19:08:22.012Z,21.70
2022-10-23T19:11:27.586Z,21.70
2022-10-23T19:14:31.296Z,21.71
2022-10-23T19:17:34.987Z,21.74
2022-10-23T19:20:40.243Z,21.53
2022-10-23T19:23:44.816Z,21.56
2022-10-23T19:26:49.436Z,21.49
2022-10-23T19:29:55.187Z,21.49
2022-10-23T19:32:58.924Z,21.40
2022-10-23T19:36:05.351Z,21.43
2022-10-23T19:39:09.775Z,21.17
2022-10-23T19:42:13.902Z,20.93
2022-10-23T19:45:17.867Z,21.03
2022-10-23T19:48:21.555Z,21.04
2022-10-23T19:51:26.685Z,21.10
2022-10-23T19:54:30.403Z,21.17
2022-10-23T19:57:35.234Z,20.98
2022-10-23T20:00:38.958Z,21.05
2022-10-23T20:03:45.585Z,21.06
2022-10-23T20:06:50.755Z,21.01
2022-10-23T20:09:55.046Z,20.93
2022-10-23T20:13:18.324Z,20.92
2022-10-23T20:16:25.067Z,21.02
2022-10-23T20:19:28.906Z,20.78
2022-10-23T20:22:34.125Z,20.67
2022-10-23T20:25:38.047Z,20.68
2022-10-23T20:28:41.788Z,20.65
2022-10-23T20:31:45.926Z,20.74
2022-10-23T20:34:49.621Z,20.72
2022-10-23T20:37:54.891Z,20.58
2022-10-23T20:41:00.626Z,20.47
2022-10-23T20:44:05.488Z,20.32
2022-10-23T20:47:09.216Z,20.35
2022-10-23T20:50:12.882Z,20.14
2022-10-23T20:53:18.104Z,19.98
2022-10-23T20:56:30.130Z,19.73
2022-10-23T20:59:34.251Z,19.69
2022-10-23T21:02:37.922Z,19.40
2022-10-23T21:05:41.676Z,19.56
2022-10-23T21:08:47.173Z,19.70
2022-10-23T21:11:51.237Z,19.42
2022-10-23T21:14:54.966Z,19.51
2022-10-23T21:18:04.967Z,19.45
2022-10-23T21:21:20.523Z,19.33
2022-10-23T21:24:25.645Z,19.36
2022-10-23T21:27:29.322Z,19.37
2022-10-23T21:30:33.982Z,19.37
2022-10-23T21:33:38.794Z,19.56
2022-10-23T21:37:07.517Z,19.48
2022-10-23T21:40:12.796Z,19.25
2022-10-23T21:43:16.422Z,19.21
2022-10-23T21:46:20.279Z,19.48
2022-10-23T21:49:23.923Z,19.43
2022-10-23T21:52:28.026Z,19.31
2022-10-23T21:55:33.260Z,19.52
2022-10-23T21:58:37.742Z,19.35
2022-10-23T22:01:43.310Z,19.36
2022-10-23T22:04:47.155Z,19.14
2022-10-23T22:07:50.867Z,19.28
2022-10-23T22:10:56.242Z,19.28
2022-10-23T22:14:00.897Z,19.24
2022-10-23T22:17:05.198Z,19.15
2022-10-23T22:20:10.326Z,19.01
2022-10-23T22:23:14.002Z,19.17
2022-10-23T22:26:25.177Z,19.27
2022-10-23T22:29:30.683Z,18.95
2022-10-23T22:32:36.663Z,19.00
2022-10-23T22:35:40.386Z,19.03
2022-10-23T22:38:44.652Z,18.87
2022-10-23T22:41:49.887Z,19.02
2022-10-23T22:44:56.373Z,18.62
2022-10-23T22:47:59.958Z,18.72
2022-10-23T22:51:06.294Z,18.81
2022-10-23T22:54:12.100Z,18.59
2022-10-23T22:57:19.509Z,18.74
2022-10-23T23:00:23.336Z,18.66
2022-10-23T23:03:29.138Z,18.85
2022-10-23T23:06:35.041Z,18.72
2022-10-23T23:09:40.435Z,18.57
2022-10-23T23:12:45.546Z,18.76
2022-10-23T23:15:49.487Z,18.45
2022-10-23T23:18:53.526Z,18.55
2022-10-23T23:21:57.763Z,18.49
2022-10-23T23:25:01.435Z,18.62
2022-10-23T23:28:08.676Z,18.55
2022-10-23T23:31:18.137Z,18.47
2022-10-23T23:34:22.316Z,18.29
2022-10-23T23:37:26.061Z,18.14
2022-10-23T23:40:29.866Z,17.87
2022-10-23T23:43:35.300Z,18.06
2022-10-23T23:46:38.963Z,18.07
2022-10-23T23:49:42.476Z,17.90
2022-10-23T23:52:46.126Z,17.92
2022-10-23T23:55:49.890Z,17.98
2022-10-23T23:58:55.050Z,18.05
